sensor_id;sensor_type;location;lat;lon;timestamp;pressure;altitude;pressure_sealevel;temperature;humidity
78411;BME280;67706;51.074;-1.796;2024-03-23T00:55:13;101233.66;;;4.87;100.00
78411;BME280;67706;51.074;-1.796;2024-03-23T00:57:39;101231.78;;;4.88;100.00
78411;BME280;67706;51.074;-1.796;2024-03-23T01:00:06;101235.03;;;4.91;100.00
78411;BME280;67706;51.074;-1.796;2024-03-23T01:02:35;101231.38;;;4.82;100.00
78411;BME280;67706;51.074;-1.796;2024-03-23T01:05:02;101229.97;;;4.78;100.00
78411;BME280;67706;51.074;-1.796;2024-03-23T01:07:28;101225.56;;;4.77;100.00
78411;BME280;67706;51.074;-1.796;2024-03-23T01:09:54;101217.53;;;4.76;100.00
78411;BME280;67706;51.074;-1.796;2024-03-23T01:12:21;101212.25;;;4.74;100.00
78411;BME280;67706;51.074;-1.796;2024-03-23T01:14:48;101212.19;;;4.84;100.00
78411;BME280;67706;51.074;-1.796;2024-03-23T01:17:14;101202.78;;;4.78;100.00
78411;BME280;67706;51.074;-1.796;2024-03-23T01:19:40;101207.94;;;4.81;100.00
78411;BME280;67706;51.074;-1.796;2024-03-23T01:22:06;101207.69;;;4.75;100.00
78411;BME280;67706;51.074;-1.796;2024-03-23T01:24:35;101210.69;;;4.72;100.00
78411;BME280;67706;51.074;-1.796;2024-03-23T01:27:01;101200.06;;;4.78;100.00
78411;BME280;67706;51.074;-1.796;2024-03-23T01:29:30;101202.38;;;4.73;100.00
78411;BME280;67706;51.074;-1.796;2024-03-23T01:31:55;101212.09;;;4.76;100.00
78411;BME280;67706;51.074;-1.796;2024-03-23T01:34:22;101210.41;;;4.75;100.00
78411;BME280;67706;51.074;-1.796;2024-03-23T01:36:50;101205.09;;;4.73;100.00
78411;BME280;67706;51.074;-1.796;2024-03-23T01:39:16;101199.97;;;4.70;100.00
78411;BME280;67706;51.074;-1.796;2024-03-23T01:41:42;101202.38;;;4.73;100.00
78411;BME280;67706;51.074;-1.796;2024-03-23T01:44:09;101200.78;;;4.80;100.00
78411;BME280;67706;51.074;-1.796;2024-03-23T01:46:36;101200.22;;;4.77;100.00
78411;BME280;67706;51.074;-1.796;2024-03-23T01:49:03;101196.94;;;4.73;100.00
78411;BME280;67706;51.074;-1.796;2024-03-23T01:51:29;101206.81;;;4.74;100.00
78411;BME280;67706;51.074;-1.796;2024-03-23T01:53:56;101202.25;;;4.75;100.00
78411;BME280;67706;51.074;-1.796;2024-03-23T01:56:22;101200.22;;;4.77;100.00
78411;BME280;67706;51.074;-1.796;2024-03-23T01:58:48;101193.94;;;4.76;100.00
78411;BME280;67706;51.074;-1.796;2024-03-23T02:01:14;101192.22;;;4.75;100.00
78411;BME280;67706;51.074;-1.796;2024-03-23T02:03:42;101190.81;;;4.71;100.00
78411;BME280;67706;51.074;-1.796;2024-03-23T02:06:08;101188.41;;;4.68;100.00
78411;BME280;67706;51.074;-1.796;2024-03-23T02:08:35;101187.19;;;4.80;100.00
78411;BME280;67706;51.074;-1.796;2024-03-23T02:11:01;101191.38;;;4.75;100.00
78411;BME280;67706;51.074;-1.796;2024-03-23T02:13:27;101191.50;;;4.73;100.00
78411;BME280;67706;51.074;-1.796;2024-03-23T02:15:53;101183.06;;;4.76;100.00
78411;BME280;67706;51.074;-1.796;2024-03-23T02:18:20;101185.94;;;4.75;100.00
78411;BME280;67706;51.074;-1.796;2024-03-23T02:20:48;101180.81;;;4.72;100.00
78411;BME280;67706;51.074;-1.796;2024-03-23T02:23:17;101175.91;;;4.75;100.00
78411;BME280;67706;51.074;-1.796;2024-03-23T02:25:43;101181.06;;;4.78;100.00
78411;BME280;67706;51.074;-1.796;2024-03-23T02:28:10;101186.06;;;4.73;100.00
78411;BME280;67706;51.074;-1.796;2024-03-23T02:30:36;101178.41;;;4.69;100.00
78411;BME280;67706;51.074;-1.796;2024-03-23T02:33:03;101180.19;;;4.78;100.00
78411;BME280;67706;51.074;-1.796;2024-03-23T02:35:29;101176.63;;;4.77;100.00
78411;BME280;67706;51.074;-1.796;2024-03-23T02:37:56;101173.06;;;4.77;100.00
78411;BME280;67706;51.074;-1.796;2024-03-23T02:40:24;101169.03;;;4.81;100.00
78411;BME280;67706;51.074;-1.796;2024-03-23T02:42:51;101171.50;;;4.74;100.00
78411;BME280;67706;51.074;-1.796;2024-03-23T02:45:16;101173.59;;;4.80;100.00
78411;BME280;67706;51.074;-1.796;2024-03-23T02:47:43;101178.63;;;4.75;100.00
78411;BME280;67706;51.074;-1.796;2024-03-23T02:50:09;101171.34;;;4.76;100.00
78411;BME280;67706;51.074;-1.796;2024-03-23T02:52:36;101170.47;;;4.75;100.00
78411;BME280;67706;51.074;-1.796;2024-03-23T02:55:02;101171.91;;;4.79;100.00
78411;BME280;67706;51.074;-1.796;2024-03-23T02:57:30;101170.34;;;4.77;100.00
78411;BME280;67706;51.074;-1.796;2024-03-23T02:59:56;101168.50;;;4.77;100.00
78411;BME280;67706;51.074;-1.796;2024-03-23T03:02:22;101168.16;;;4.80;100.00
78411;BME280;67706;51.074;-1.796;2024-03-23T03:04:48;101172.44;;;4.83;100.00
78411;BME280;67706;51.074;-1.796;2024-03-23T03:07:15;101175.31;;;4.81;100.00
78411;BME280;67706;51.074;-1.796;2024-03-23T03:09:41;101170.19;;;4.78;100.00
78411;BME280;67706;51.074;-1.796;2024-03-23T03:12:08;101176.41;;;4.89;100.00
78411;BME280;67706;51.074;-1.796;2024-03-23T03:14:35;101171.38;;;4.94;100.00
78411;BME280;67706;51.074;-1.796;2024-03-23T03:17:02;101176.97;;;4.92;100.00
78411;BME280;67706;51.074;-1.796;2024-03-23T03:19:27;101182.53;;;4.91;100.00
78411;BME280;67706;51.074;-1.796;2024-03-23T03:21:54;101177.09;;;4.91;100.00
78411;BME280;67706;51.074;-1.796;2024-03-23T03:24:20;101180.28;;;4.86;100.00
78411;BME280;67706;51.074;-1.796;2024-03-23T03:26:46;101174.00;;;4.86;100.00
78411;BME280;67706;51.074;-1.796;2024-03-23T03:29:12;101172.59;;;4.81;100.00
78411;BME280;67706;51.074;-1.796;2024-03-23T03:31:40;101170.34;;;4.77;100.00
78411;BME280;67706;51.074;-1.796;2024-03-23T03:34:05;101171.19;;;4.77;100.00
78411;BME280;67706;51.074;-1.796;2024-03-23T03:36:32;101174.06;;;4.76;100.00
78411;BME280;67706;51.074;-1.796;2024-03-23T03:38:58;101183.34;;;4.73;100.00
78411;BME280;67706;51.074;-1.796;2024-03-23T03:41:25;101176.38;;;4.71;100.00
78411;BME280;67706;51.074;-1.796;2024-03-23T03:43:51;101168.84;;;4.65;100.00
78411;BME280;67706;51.074;-1.796;2024-03-23T03:46:17;101178.69;;;4.66;100.00
78411;BME280;67706;51.074;-1.796;2024-03-23T03:48:44;101170.25;;;4.69;100.00
78411;BME280;67706;51.074;-1.796;2024-03-23T03:51:13;101172.09;;;4.68;100.00
78411;BME280;67706;51.074;-1.796;2024-03-23T03:53:38;101168.84;;;4.65;100.00
78411;BME280;67706;51.074;-1.796;2024-03-23T03:56:05;101172.00;;;4.60;100.00
78411;BME280;67706;51.074;-1.796;2024-03-23T03:58:30;101174.56;;;4.62;100.00
78411;BME280;67706;51.074;-1.796;2024-03-23T04:00:57;101168.59;;;4.58;100.00
78411;BME280;67706;51.074;-1.796;2024-03-23T04:03:23;101167.56;;;4.59;100.00
78411;BME280;67706;51.074;-1.796;2024-03-23T04:05:52;101170.28;;;4.59;100.00
78411;BME280;67706;51.074;-1.796;2024-03-23T04:08:18;101167.72;;;4.58;100.00
78411;BME280;67706;51.074;-1.796;2024-03-23T04:10:44;101168.03;;;4.55;100.00
78411;BME280;67706;51.074;-1.796;2024-03-23T04:13:10;101163.44;;;4.55;100.00
78411;BME280;67706;51.074;-1.796;2024-03-23T04:15:38;101161.19;;;4.51;100.00
78411;BME280;67706;51.074;-1.796;2024-03-23T04:18:04;101168.88;;;4.55;100.00
78411;BME280;67706;51.074;-1.796;2024-03-23T04:20:31;101166.59;;;4.60;100.00
78411;BME280;67706;51.074;-1.796;2024-03-23T04:22:59;101160.72;;;4.55;100.00
78411;BME280;67706;51.074;-1.796;2024-03-23T04:25:25;101163.44;;;4.55;100.00
78411;BME280;67706;51.074;-1.796;2024-03-23T04:27:51;101162.75;;;4.53;100.00
78411;BME280;67706;51.074;-1.796;2024-03-23T04:30:18;101163.03;;;4.50;100.00
78411;BME280;67706;51.074;-1.796;2024-03-23T04:32:44;101155.75;;;4.51;100.00
78411;BME280;67706;51.074;-1.796;2024-03-23T04:35:11;101157.47;;;4.52;100.00
78411;BME280;67706;51.074;-1.796;2024-03-23T04:37:37;101152.91;;;4.52;100.00
78411;BME280;67706;51.074;-1.796;2024-03-23T04:40:08;101157.16;;;4.55;100.00
78411;BME280;67706;51.074;-1.796;2024-03-23T04:42:36;101145.47;;;4.54;100.00
78411;BME280;67706;51.074;-1.796;2024-03-23T04:45:04;101158.00;;;4.55;100.00
78411;BME280;67706;51.074;-1.796;2024-03-23T04:47:31;101154.59;;;4.53;100.00
78411;BME280;67706;51.074;-1.796;2024-03-23T04:49:58;101159.31;;;4.51;100.00
78411;BME280;67706;51.074;-1.796;2024-03-23T04:52:24;101156.78;;;4.50;100.00
78411;BME280;67706;51.074;-1.796;2024-03-23T04:54:51;101152.59;;;4.55;100.00
78411;BME280;67706;51.074;-1.796;2024-03-23T04:57:18;101156.19;;;4.46;100.00
78411;BME280;67706;51.074;-1.796;2024-03-23T04:59:44;101160.91;;;4.54;100.00
78411;BME280;67706;51.074;-1.796;2024-03-23T05:02:10;101163.34;;;4.47;100.00
78411;BME280;67706;51.074;-1.796;2024-03-23T05:04:37;101156.81;;;4.40;100.00
78411;BME280;67706;51.074;-1.796;2024-03-23T05:07:02;101147.66;;;4.41;100.00
78411;BME280;67706;51.074;-1.796;2024-03-23T05:09:29;101150.28;;;4.33;100.00
78411;BME280;67706;51.074;-1.796;2024-03-23T05:11:55;101133.66;;;4.36;100.00
78411;BME280;67706;51.074;-1.796;2024-03-23T05:14:23;101129.56;;;4.32;100.00
78411;BME280;67706;51.074;-1.796;2024-03-23T05:16:49;101131.88;;;4.27;100.00
78411;BME280;67706;51.074;-1.796;2024-03-23T05:19:16;101125.88;;;4.24;100.00
78411;BME280;67706;51.074;-1.796;2024-03-23T05:21:41;101138.03;;;4.20;100.00
78411;BME280;67706;51.074;-1.796;2024-03-23T05:24:08;101137.59;;;4.24;100.00
78411;BME280;67706;51.074;-1.796;2024-03-23T05:26:34;101134.28;;;4.30;100.00
78411;BME280;67706;51.074;-1.796;2024-03-23T05:29:01;101133.03;;;4.25;100.00
78411;BME280;67706;51.074;-1.796;2024-03-23T05:31:29;101131.03;;;4.17;100.00
78411;BME280;67706;51.074;-1.796;2024-03-23T05:33:56;101132.66;;;4.10;100.00
78411;BME280;67706;51.074;-1.796;2024-03-23T05:36:22;101128.94;;;4.11;100.00
78411;BME280;67706;51.074;-1.796;2024-03-23T05:38:49;101132.84;;;3.99;100.00
78411;BME280;67706;51.074;-1.796;2024-03-23T05:41:14;101130.56;;;4.04;100.00
78411;BME280;67706;51.074;-1.796;2024-03-23T05:43:41;101132.28;;;3.95;100.00
78411;BME280;67706;51.074;-1.796;2024-03-23T05:46:07;101134.84;;;3.97;100.00
78411;BME280;67706;51.074;-1.796;2024-03-23T05:48:35;101127.75;;;3.86;100.00
78411;BME280;67706;51.074;-1.796;2024-03-23T05:51:01;101126.19;;;3.84;100.00
78411;BME280;67706;51.074;-1.796;2024-03-23T05:53:28;101124.06;;;3.78;100.00
78411;BME280;67706;51.074;-1.796;2024-03-23T05:56:01;101127.47;;;3.80;100.00
78411;BME280;67706;51.074;-1.796;2024-03-23T05:58:30;101124.47;;;3.83;100.00
78411;BME280;67706;51.074;-1.796;2024-03-23T06:01:00;101133.50;;;3.74;100.00
78411;BME280;67706;51.074;-1.796;2024-03-23T06:03:28;101123.78;;;3.81;100.00
78411;BME280;67706;51.074;-1.796;2024-03-23T06:05:55;101123.50;;;3.74;100.00
78411;BME280;67706;51.074;-1.796;2024-03-23T06:08:22;101121.66;;;3.65;100.00
78411;BME280;67706;51.074;-1.796;2024-03-23T06:10:49;101119.09;;;3.64;100.00
78411;BME280;67706;51.074;-1.796;2024-03-23T06:13:16;101116.69;;;3.61;100.00
78411;BME280;67706;51.074;-1.796;2024-03-23T06:15:42;101109.84;;;3.57;100.00
78411;BME280;67706;51.074;-1.796;2024-03-23T06:18:09;101113.84;;;3.53;100.00
78411;BME280;67706;51.074;-1.796;2024-03-23T06:20:34;101112.44;;;3.49;100.00
78411;BME280;67706;51.074;-1.796;2024-03-23T06:23:03;101110.97;;;3.54;100.00
78411;BME280;67706;51.074;-1.796;2024-03-23T06:25:29;101111.13;;;3.53;100.00
78411;BME280;67706;51.074;-1.796;2024-03-23T06:27:55;101103.44;;;3.58;100.00
78411;BME280;67706;51.074;-1.796;2024-03-23T06:30:21;101111.84;;;3.64;100.00
78411;BME280;67706;51.074;-1.796;2024-03-23T06:32:48;101109.13;;;3.64;100.00
78411;BME280;67706;51.074;-1.796;2024-03-23T06:35:14;101100.81;;;3.66;100.00
78411;BME280;67706;51.074;-1.796;2024-03-23T06:37:40;101111.19;;;3.80;100.00
78411;BME280;67706;51.074;-1.796;2024-03-23T06:40:08;101102.34;;;3.78;100.00
78411;BME280;67706;51.074;-1.796;2024-03-23T06:42:36;101106.91;;;3.87;100.00
78411;BME280;67706;51.074;-1.796;2024-03-23T06:45:02;101105.63;;;3.81;100.00
78411;BME280;67706;51.074;-1.796;2024-03-23T06:47:30;101114.03;;;3.88;100.00
78411;BME280;67706;51.074;-1.796;2024-03-23T06:49:55;101112.31;;;3.87;100.00
78411;BME280;67706;51.074;-1.796;2024-03-23T06:52:22;101109.28;;;3.99;100.00
78411;BME280;67706;51.074;-1.796;2024-03-23T06:54:48;101094.56;;;4.02;100.00
78411;BME280;67706;51.074;-1.796;2024-03-23T06:57:15;101095.47;;;4.20;100.00
78411;BME280;67706;51.074;-1.796;2024-03-23T06:59:41;101098.06;;;4.39;100.00
78411;BME280;67706;51.074;-1.796;2024-03-23T07:02:08;101089.00;;;4.48;100.00
78411;BME280;67706;51.074;-1.796;2024-03-23T07:04:34;101093.34;;;4.59;100.00
78411;BME280;67706;51.074;-1.796;2024-03-23T07:07:01;101082.59;;;4.67;100.00
78411;BME280;67706;51.074;-1.796;2024-03-23T07:09:27;101094.31;;;4.67;100.00
78411;BME280;67706;51.074;-1.796;2024-03-23T07:11:54;101071.25;;;4.71;100.00
78411;BME280;67706;51.074;-1.796;2024-03-23T07:14:21;101064.41;;;4.67;100.00
78411;BME280;67706;51.074;-1.796;2024-03-23T07:16:48;101068.00;;;4.86;100.00
78411;BME280;67706;51.074;-1.796;2024-03-23T07:19:14;101064.50;;;4.93;100.00
78411;BME280;67706;51.074;-1.796;2024-03-23T07:21:42;101050.09;;;5.01;100.00
78411;BME280;67706;51.074;-1.796;2024-03-23T07:24:08;101048.13;;;5.03;100.00
78411;BME280;67706;51.074;-1.796;2024-03-23T07:26:35;101042.88;;;5.09;100.00
78411;BME280;67706;51.074;-1.796;2024-03-23T07:29:01;101043.66;;;5.19;100.00
78411;BME280;67706;51.074;-1.796;2024-03-23T07:31:29;101035.00;;;5.24;100.00
78411;BME280;67706;51.074;-1.796;2024-03-23T07:33:54;101041.53;;;5.31;100.00
78411;BME280;67706;51.074;-1.796;2024-03-23T07:36:21;101038.84;;;5.39;100.00
78411;BME280;67706;51.074;-1.796;2024-03-23T07:38:47;101047.94;;;5.47;100.00
78411;BME280;67706;51.074;-1.796;2024-03-23T07:41:14;101039.47;;;5.50;100.00
78411;BME280;67706;51.074;-1.796;2024-03-23T07:43:43;101035.91;;;5.58;100.00
78411;BME280;67706;51.074;-1.796;2024-03-23T07:46:10;101036.44;;;5.61;100.00
78411;BME280;67706;51.074;-1.796;2024-03-23T07:48:39;101035.66;;;5.69;100.00
78411;BME280;67706;51.074;-1.796;2024-03-23T07:51:09;101035.00;;;5.75;100.00
78411;BME280;67706;51.074;-1.796;2024-03-23T07:53:35;101034.84;;;5.77;100.00
78411;BME280;67706;51.074;-1.796;2024-03-23T07:56:05;101038.66;;;5.84;100.00
78411;BME280;67706;51.074;-1.796;2024-03-23T07:58:31;101030.94;;;5.79;100.00
78411;BME280;67706;51.074;-1.796;2024-03-23T08:01:04;101045.47;;;5.88;100.00
78411;BME280;67706;51.074;-1.796;2024-03-23T08:03:33;101050.06;;;5.87;100.00
78411;BME280;67706;51.074;-1.796;2024-03-23T08:06:06;101057.22;;;5.88;100.00
78411;BME280;67706;51.074;-1.796;2024-03-23T08:08:33;101066.41;;;5.87;100.00
78411;BME280;67706;51.074;-1.796;2024-03-23T08:10:59;101053.81;;;5.86;100.00
78411;BME280;67706;51.074;-1.796;2024-03-23T08:13:26;101048.06;;;5.97;100.00
78411;BME280;67706;51.074;-1.796;2024-03-23T08:15:51;101052.16;;;6.01;100.00
78411;BME280;67706;51.074;-1.796;2024-03-23T08:18:18;101055.06;;;6.00;100.00
78411;BME280;67706;51.074;-1.796;2024-03-23T08:20:44;101050.69;;;6.07;100.00
78411;BME280;67706;51.074;-1.796;2024-03-23T08:23:12;101035.53;;;6.12;100.00
78411;BME280;67706;51.074;-1.796;2024-03-23T08:25:37;101043.91;;;6.19;100.00
78411;BME280;67706;51.074;-1.796;2024-03-23T08:28:04;101057.44;;;6.36;100.00
78411;BME280;67706;51.074;-1.796;2024-03-23T08:30:30;101054.38;;;6.48;100.00
78411;BME280;67706;51.074;-1.796;2024-03-23T08:32:57;101046.56;;;6.45;100.00
78411;BME280;67706;51.074;-1.796;2024-03-23T08:35:23;101030.53;;;6.50;100.00
78411;BME280;67706;51.074;-1.796;2024-03-23T08:37:49;101028.38;;;6.61;100.00
78411;BME280;67706;51.074;-1.796;2024-03-23T08:40:16;101036.72;;;6.60;100.00
78411;BME280;67706;51.074;-1.796;2024-03-23T08:42:43;101031.94;;;6.62;100.00
78411;BME280;67706;51.074;-1.796;2024-03-23T08:45:09;101027.19;;;6.64;100.00
78411;BME280;67706;51.074;-1.796;2024-03-23T08:47:35;101016.59;;;6.77;100.00
78411;BME280;67706;51.074;-1.796;2024-03-23T08:50:01;101021.41;;;6.83;100.00
78411;BME280;67706;51.074;-1.796;2024-03-23T08:52:29;101020.88;;;6.95;100.00
78411;BME280;67706;51.074;-1.796;2024-03-23T08:54:55;101012.88;;;7.02;100.00
78411;BME280;67706;51.074;-1.796;2024-03-23T08:57:23;101001.81;;;7.03;100.00
78411;BME280;67706;51.074;-1.796;2024-03-23T08:59:49;101001.47;;;7.22;100.00
78411;BME280;67706;51.074;-1.796;2024-03-23T09:02:16;101013.53;;;7.36;100.00
78411;BME280;67706;51.074;-1.796;2024-03-23T09:04:41;101010.63;;;7.38;100.00
78411;BME280;67706;51.074;-1.796;2024-03-23T09:07:08;101006.34;;;7.51;100.00
78411;BME280;67706;51.074;-1.796;2024-03-23T09:09:34;101015.19;;;7.61;100.00
78411;BME280;67706;51.074;-1.796;2024-03-23T09:12:01;101003.75;;;7.66;100.00
78411;BME280;67706;51.074;-1.796;2024-03-23T09:14:30;100998.47;;;7.64;100.00
78411;BME280;67706;51.074;-1.796;2024-03-23T09:16:56;100990.25;;;7.72;100.00
78411;BME280;67706;51.074;-1.796;2024-03-23T09:19:22;100996.53;;;7.81;100.00
78411;BME280;67706;51.074;-1.796;2024-03-23T09:21:49;100998.28;;;7.66;100.00
78411;BME280;67706;51.074;-1.796;2024-03-23T09:24:16;100996.94;;;7.62;100.00
78411;BME280;67706;51.074;-1.796;2024-03-23T09:26:41;101000.53;;;7.62;100.00
78411;BME280;67706;51.074;-1.796;2024-03-23T09:29:08;100997.13;;;7.52;100.00
78411;BME280;67706;51.074;-1.796;2024-03-23T09:31:35;101001.53;;;7.61;100.00
78411;BME280;67706;51.074;-1.796;2024-03-23T09:34:03;100997.63;;;7.56;100.00
78411;BME280;67706;51.074;-1.796;2024-03-23T09:36:29;100990.28;;;7.56;100.00
78411;BME280;67706;51.074;-1.796;2024-03-23T09:38:57;100990.28;;;7.64;100.00
78411;BME280;67706;51.074;-1.796;2024-03-23T09:41:22;100993.69;;;7.66;100.00
78411;BME280;67706;51.074;-1.796;2024-03-23T09:43:52;100986.28;;;7.83;100.00
78411;BME280;67706;51.074;-1.796;2024-03-23T09:46:18;100986.44;;;7.81;100.00
78411;BME280;67706;51.074;-1.796;2024-03-23T09:48:47;100988.22;;;7.66;100.00
78411;BME280;67706;51.074;-1.796;2024-03-23T09:51:13;100976.50;;;7.50;100.00
78411;BME280;67706;51.074;-1.796;2024-03-23T09:53:40;100973.88;;;7.72;100.00
78411;BME280;67706;51.074;-1.796;2024-03-23T09:56:07;100968.00;;;7.83;100.00
78411;BME280;67706;51.074;-1.796;2024-03-23T09:58:33;100965.13;;;7.85;100.00
78411;BME280;67706;51.074;-1.796;2024-03-23T10:00:59;100955.16;;;8.00;100.00
78411;BME280;67706;51.074;-1.796;2024-03-23T10:03:26;100953.31;;;7.84;100.00
78411;BME280;67706;51.074;-1.796;2024-03-23T10:06:02;100961.06;;;7.73;100.00
78411;BME280;67706;51.074;-1.796;2024-03-23T10:08:29;100966.97;;;7.84;100.00
78411;BME280;67706;51.074;-1.796;2024-03-23T10:10:55;100957.41;;;7.88;100.00
78411;BME280;67706;51.074;-1.796;2024-03-23T10:13:26;100957.16;;;8.06;100.00
78411;BME280;67706;51.074;-1.796;2024-03-23T10:15:56;100958.69;;;8.39;100.00
78411;BME280;67706;51.074;-1.796;2024-03-23T10:18:24;100953.97;;;8.56;100.00
78411;BME280;67706;51.074;-1.796;2024-03-23T10:20:52;100931.34;;;8.62;100.00
78411;BME280;67706;51.074;-1.796;2024-03-23T10:23:22;100929.16;;;8.80;100.00
78411;BME280;67706;51.074;-1.796;2024-03-23T10:25:48;100927.50;;;8.94;100.00
78411;BME280;67706;51.074;-1.796;2024-03-23T10:28:14;100924.59;;;9.10;100.00
78411;BME280;67706;51.074;-1.796;2024-03-23T10:30:40;100923.06;;;9.07;100.00
78411;BME280;67706;51.074;-1.796;2024-03-23T10:33:08;100910.00;;;9.17;100.00
78411;BME280;67706;51.074;-1.796;2024-03-23T10:35:34;100912.34;;;9.35;100.00
78411;BME280;67706;51.074;-1.796;2024-03-23T10:38:02;100903.88;;;9.44;100.00
78411;BME280;67706;51.074;-1.796;2024-03-23T10:40:29;100893.66;;;9.53;100.00
78411;BME280;67706;51.074;-1.796;2024-03-23T10:42:58;100903.66;;;9.02;100.00
78411;BME280;67706;51.074;-1.796;2024-03-23T10:45:24;100910.81;;;8.66;100.00
78411;BME280;67706;51.074;-1.796;2024-03-23T10:47:51;100909.63;;;8.46;100.00
78411;BME280;67706;51.074;-1.796;2024-03-23T10:50:17;100914.66;;;8.03;100.00
78411;BME280;67706;51.074;-1.796;2024-03-23T10:52:47;100916.88;;;7.69;100.00
78411;BME280;67706;51.074;-1.796;2024-03-23T10:55:14;100926.66;;;7.56;100.00
78411;BME280;67706;51.074;-1.796;2024-03-23T10:57:47;100937.75;;;7.46;100.00
78411;BME280;67706;51.074;-1.796;2024-03-23T11:00:14;100931.34;;;7.23;100.00
78411;BME280;67706;51.074;-1.796;2024-03-23T11:02:42;100929.16;;;7.10;100.00
78411;BME280;67706;51.074;-1.796;2024-03-23T11:05:28;100911.94;;;7.18;100.00
78411;BME280;67706;51.074;-1.796;2024-03-23T11:07:56;100896.41;;;7.27;100.00
78411;BME280;67706;51.074;-1.796;2024-03-23T11:10:26;100889.41;;;7.24;100.00
78411;BME280;67706;51.074;-1.796;2024-03-23T11:12:55;100873.41;;;7.13;100.00
78411;BME280;67706;51.074;-1.796;2024-03-23T11:15:21;100880.88;;;7.27;100.00
78411;BME280;67706;51.074;-1.796;2024-03-23T11:18:09;100871.84;;;7.65;100.00
78411;BME280;67706;51.074;-1.796;2024-03-23T11:20:35;100869.00;;;7.89;100.00
78411;BME280;67706;51.074;-1.796;2024-03-23T11:23:02;100863.81;;;8.17;100.00
78411;BME280;67706;51.074;-1.796;2024-03-23T11:25:28;100867.88;;;8.52;100.00
78411;BME280;67706;51.074;-1.796;2024-03-23T11:27:58;100869.47;;;8.61;100.00
78411;BME280;67706;51.074;-1.796;2024-03-23T11:30:25;100879.34;;;8.25;100.00
78411;BME280;67706;51.074;-1.796;2024-03-23T11:32:52;100895.97;;;7.84;100.00
78411;BME280;67706;51.074;-1.796;2024-03-23T11:35:26;100882.69;;;7.43;100.00
78411;BME280;67706;51.074;-1.796;2024-03-23T11:38:06;100881.47;;;7.53;100.00
78411;BME280;67706;51.074;-1.796;2024-03-23T11:40:32;100861.53;;;7.75;100.00
78411;BME280;67706;51.074;-1.796;2024-03-23T11:43:02;100874.34;;;8.06;100.00
78411;BME280;67706;51.074;-1.796;2024-03-23T11:45:28;100855.72;;;8.32;100.00
78411;BME280;67706;51.074;-1.796;2024-03-23T11:48:06;100840.28;;;8.76;100.00
78411;BME280;67706;51.074;-1.796;2024-03-23T11:50:32;100827.31;;;9.07;100.00
78411;BME280;67706;51.074;-1.796;2024-03-23T11:53:12;100844.88;;;8.61;100.00
78411;BME280;67706;51.074;-1.796;2024-03-23T11:55:46;100845.94;;;8.60;100.00
78411;BME280;67706;51.074;-1.796;2024-03-23T11:58:16;100847.47;;;8.40;100.00
78411;BME280;67706;51.074;-1.796;2024-03-23T12:00:42;100846.56;;;8.47;100.00
78411;BME280;67706;51.074;-1.796;2024-03-23T12:03:08;100844.94;;;8.53;100.00
78411;BME280;67706;51.074;-1.796;2024-03-23T12:05:36;100850.50;;;8.45;100.00
78411;BME280;67706;51.074;-1.796;2024-03-23T12:08:22;100844.38;;;8.43;100.00
78411;BME280;67706;51.074;-1.796;2024-03-23T12:10:50;100833.03;;;8.23;100.00
78411;BME280;67706;51.074;-1.796;2024-03-23T12:13:19;100819.28;;;8.17;100.00
78411;BME280;67706;51.074;-1.796;2024-03-23T12:15:46;100840.22;;;8.01;100.00
78411;BME280;67706;51.074;-1.796;2024-03-23T12:18:13;100829.91;;;7.89;100.00
78411;BME280;67706;51.074;-1.796;2024-03-23T12:20:39;100842.88;;;7.56;100.00
78411;BME280;67706;51.074;-1.796;2024-03-23T12:23:07;100848.44;;;7.32;100.00
78411;BME280;67706;51.074;-1.796;2024-03-23T12:25:35;100847.06;;;6.97;100.00
78411;BME280;67706;51.074;-1.796;2024-03-23T12:28:00;100850.31;;;6.69;100.00
78411;BME280;67706;51.074;-1.796;2024-03-23T12:30:28;100847.78;;;6.59;100.00
78411;BME280;67706;51.074;-1.796;2024-03-23T12:32:54;100825.47;;;6.48;100.00
78411;BME280;67706;51.074;-1.796;2024-03-23T12:35:21;100837.75;;;6.43;100.00
78411;BME280;67706;51.074;-1.796;2024-03-23T12:37:46;100835.38;;;6.40;100.00
78411;BME280;67706;51.074;-1.796;2024-03-23T12:40:13;100833.34;;;6.43;100.00
78411;BME280;67706;51.074;-1.796;2024-03-23T12:42:38;100829.25;;;6.47;100.00
78411;BME280;67706;51.074;-1.796;2024-03-23T12:45:06;100816.28;;;6.57;100.00
78411;BME280;67706;51.074;-1.796;2024-03-23T12:47:33;100812.81;;;6.79;100.00
78411;BME280;67706;51.074;-1.796;2024-03-23T12:50:00;100811.06;;;6.94;100.00
78411;BME280;67706;51.074;-1.796;2024-03-23T12:52:26;100804.31;;;7.20;100.00
78411;BME280;67706;51.074;-1.796;2024-03-23T12:54:55;100796.22;;;7.43;100.00
78411;BME280;67706;51.074;-1.796;2024-03-23T12:57:22;100779.06;;;7.57;100.00
78411;BME280;67706;51.074;-1.796;2024-03-23T12:59:49;100764.34;;;7.89;100.00
78411;BME280;67706;51.074;-1.796;2024-03-23T13:02:16;100757.94;;;8.19;100.00
78411;BME280;67706;51.074;-1.796;2024-03-23T13:04:46;100746.31;;;8.25;100.00
78411;BME280;67706;51.074;-1.796;2024-03-23T13:07:11;100742.78;;;8.54;100.00
78411;BME280;67706;51.074;-1.796;2024-03-23T13:09:38;100745.00;;;8.36;100.00
78411;BME280;67706;51.074;-1.796;2024-03-23T13:12:04;100753.22;;;8.13;100.00
78411;BME280;67706;51.074;-1.796;2024-03-23T13:14:31;100762.25;;;8.14;100.00
78411;BME280;67706;51.074;-1.796;2024-03-23T13:16:56;100744.78;;;8.23;100.00
78411;BME280;67706;51.074;-1.796;2024-03-23T13:19:23;100743.41;;;8.41;100.00
78411;BME280;67706;51.074;-1.796;2024-03-23T13:21:53;100733.06;;;8.66;100.00
78411;BME280;67706;51.074;-1.796;2024-03-23T13:24:22;100731.19;;;8.81;100.00
78411;BME280;67706;51.074;-1.796;2024-03-23T13:26:49;100718.25;;;9.04;100.00
78411;BME280;67706;51.074;-1.796;2024-03-23T13:29:16;100721.16;;;9.17;100.00
78411;BME280;67706;51.074;-1.796;2024-03-23T13:31:41;100736.78;;;9.38;100.00
78411;BME280;67706;51.074;-1.796;2024-03-23T13:34:08;100748.41;;;9.25;100.00